Time;durP1;ratioP1;P1;durP2;ratioP2;P2;SDS_P1;SDS_P2;PMS_P1;PMS_P2;Temp;Humidity;BMP_temperature;BMP_pressure;BME280_temperature;BME280_humidity;BME280_pressure;Samples;Min_cycle;Max_cycle;Signal;HPM_P1;HPM_P2
2022/12/07 00:01:46;;;;;;;19.63;12.23;;;;;;;2.22;100.00;98308.04;2276065;78;20938;-81
2022/12/07 00:04:46;;;;;;;21.67;10.90;;;;;;;2.19;100.00;98304.06;2275806;78;20974;-83
2022/12/07 00:07:46;;;;;;;26.07;11.17;;;;;;;2.14;100.00;98296.59;2275956;78;20903;-83
2022/12/07 00:10:47;;;;;;;17.07;10.03;;;;;;;2.12;100.00;98296.94;2275557;78;20950;-83
2022/12/07 00:13:47;;;;;;;14.40;9.50;;;;;;;2.10;100.00;98293.44;2275814;78;20903;-83
2022/12/07 00:16:48;;;;;;;19.63;10.20;;;;;;;2.05;100.00;98293.68;2275917;78;20951;-82
2022/12/07 00:19:48;;;;;;;19.63;9.70;;;;;;;2.09;100.00;98291.27;2276065;78;21273;-78
2022/12/07 00:22:48;;;;;;;18.20;10.53;;;;;;;2.11;100.00;98295.19;2279090;78;20934;-83
2022/12/07 00:25:49;;;;;;;16.17;9.53;;;;;;;2.09;100.00;98295.14;2280046;78;20938;-82
2022/12/07 00:28:49;;;;;;;96.07;62.43;;;;;;;2.10;99.83;98293.44;2279624;78;20951;-84
2022/12/07 00:31:50;;;;;;;17.00;10.93;;;;;;;2.10;99.79;98297.30;2280368;78;20925;-83
2022/12/07 00:34:50;;;;;;;21.63;9.93;;;;;;;2.05;99.66;98293.27;2279776;78;20883;-83
2022/12/07 00:37:50;;;;;;;13.80;10.63;;;;;;;2.03;99.56;98289.77;2279751;78;20945;-82
2022/12/07 00:40:51;;;;;;;12.43;8.40;;;;;;;2.01;99.73;98287.55;2279249;78;21386;-83
2022/12/07 00:43:51;;;;;;;11.77;7.80;;;;;;;1.95;99.40;98287.33;2279677;78;20867;-84
2022/12/07 00:46:52;;;;;;;14.77;7.90;;;;;;;1.93;99.30;98283.81;2279920;78;20930;-82
2022/12/07 00:49:52;;;;;;;10.33;6.87;;;;;;;1.95;99.57;98281.30;2279463;78;21282;-83
2022/12/07 00:52:52;;;;;;;17.83;9.73;;;;;;;1.91;99.25;98285.05;2279400;78;21278;-83
2022/12/07 00:55:53;;;;;;;9.40;7.57;;;;;;;1.88;99.45;98281.08;2279069;78;20907;-83
2022/12/07 00:58:53;;;;;;;16.73;9.40;;;;;;;1.88;99.42;98278.50;2279306;78;20931;-83
2022/12/07 01:01:54;;;;;;;17.73;8.50;;;;;;;1.79;99.19;98283.72;2279456;78;20934;-82
2022/12/07 01:04:54;;;;;;;11.83;7.23;;;;;;;1.77;99.48;98281.09;2279351;78;20938;-83
2022/12/07 01:07:55;;;;;;;11.57;7.77;;;;;;;1.77;99.32;98278.93;2279228;78;20902;-82
2022/12/07 01:10:55;;;;;;;11.33;7.00;;;;;;;1.77;99.34;98284.95;2278855;78;20958;-81
2022/12/07 01:13:55;;;;;;;13.07;7.70;;;;;;;1.81;99.47;98284.66;2279671;78;20899;-84
2022/12/07 01:16:56;;;;;;;9.87;7.40;;;;;;;1.80;99.22;98282.49;2279343;78;21228;-83
2022/12/07 01:19:56;;;;;;;11.30;8.23;;;;;;;1.78;99.00;98280.69;2279211;78;20928;-83
2022/12/07 01:22:57;;;;;;;10.30;7.60;;;;;;;1.78;99.23;98277.70;2279085;78;20903;-83
2022/12/07 01:25:57;;;;;;;10.27;7.70;;;;;;;1.81;99.00;98280.80;2279180;78;21357;-83
2022/12/07 01:28:58;;;;;;;9.63;6.93;;;;;;;1.81;99.22;98276.94;2279431;78;20922;-82
2022/12/07 01:31:58;;;;;;;10.33;7.07;;;;;;;1.84;99.07;98277.05;2279142;78;20942;-83
2022/12/07 01:34:58;;;;;;;12.07;7.07;;;;;;;1.82;98.93;98275.70;2279375;78;20934;-83
2022/12/07 01:37:58;;;;;;;7.87;6.60;;;;;;;1.80;98.95;98273.89;2279336;78;20868;-83
2022/12/07 01:40:59;;;;;;;8.53;6.27;;;;;;;1.76;99.14;98276.77;2279200;78;21025;-83
2022/12/07 01:43:59;;;;;;;7.40;6.00;;;;;;;1.75;99.18;98275.42;2279592;78;20891;-82
2022/12/07 01:47:00;;;;;;;6.53;5.93;;;;;;;1.76;99.23;98278.05;2279466;78;21267;-83
2022/12/07 01:50:00;;;;;;;8.17;6.03;;;;;;;1.81;99.51;98275.23;2279086;78;20915;-83
2022/12/07 01:53:01;;;;;;;6.23;5.50;;;;;;;1.86;99.31;98276.69;2279257;78;20906;-83
2022/12/07 01:56:01;;;;;;;7.03;5.47;;;;;;;1.88;99.29;98277.22;2279442;78;20891;-84
2022/12/07 01:59:01;;;;;;;10.80;5.70;;;;;;;1.94;99.26;98270.54;2279372;78;21223;-83
2022/12/07 02:02:02;;;;;;;9.70;5.83;;;;;;;1.96;99.02;98262.46;2279691;78;20875;-80
2022/12/07 02:05:02;;;;;;;8.13;6.20;;;;;;;1.99;98.89;98267.31;2280061;78;20961;-81
2022/12/07 02:08:03;;;;;;;8.40;6.03;;;;;;;2.00;98.86;98265.61;2279873;78;21243;-84
2022/12/07 02:11:03;;;;;;;11.17;6.47;;;;;;;1.99;98.59;98260.00;2279538;78;20958;-84
2022/12/07 02:14:03;;;;;;;7.77;6.17;;;;;;;2.01;98.85;98260.52;2279835;78;20945;-83
2022/12/07 02:17:04;;;;;;;8.60;6.27;;;;;;;2.01;98.73;98255.37;2279428;78;21295;-84
2022/12/07 02:20:04;;;;;;;8.70;6.83;;;;;;;2.02;98.51;98252.39;2279433;78;20906;-84
2022/12/07 02:23:05;;;;;;;9.27;7.27;;;;;;;1.99;98.40;98254.84;2245523;78;21080;-83
2022/12/07 02:26:05;;;;;;;8.77;6.90;;;;;;;1.95;98.34;98246.55;2234504;80;20964;-83
2022/12/07 02:29:05;;;;;;;11.73;6.90;;;;;;;1.99;98.59;98252.28;2234523;79;20942;-83
2022/12/07 02:32:06;;;;;;;9.80;6.87;;;;;;;1.96;98.20;98241.88;2234653;79;20930;-84
2022/12/07 02:35:06;;;;;;;11.60;7.70;;;;;;;1.96;98.52;98244.44;2235009;79;20937;-84
2022/12/07 02:38:07;;;;;;;7.53;6.70;;;;;;;1.99;98.42;98249.29;2234972;79;21286;-85
2022/12/07 02:41:07;;;;;;;10.20;7.17;;;;;;;1.99;98.32;98250.98;2234439;79;21000;-84
2022/12/07 02:44:07;;;;;;;10.03;7.80;;;;;;;1.96;98.35;98239.30;2234948;79;20942;-84
2022/12/07 02:47:08;;;;;;;8.60;7.00;;;;;;;1.95;98.41;98246.55;2234698;79;20945;-84
2022/12/07 02:50:08;;;;;;;11.70;7.80;;;;;;;1.97;98.46;98238.47;2233940;79;20930;-85
2022/12/07 02:53:09;;;;;;;11.03;7.80;;;;;;;1.99;98.29;98234.25;2234176;79;20954;-83
2022/12/07 02:56:09;;;;;;;9.87;7.77;;;;;;;1.95;98.11;98231.98;2233986;80;20930;-84
2022/12/07 02:59:09;;;;;;;11.57;8.53;;;;;;;1.96;98.11;98232.45;2233900;79;21261;-84
2022/12/07 03:02:10;;;;;;;11.27;8.37;;;;;;;1.96;97.99;98230.29;2233711;79;20944;-84
2022/12/07 03:05:10;;;;;;;9.47;8.27;;;;;;;1.94;97.85;98225.50;2234036;79;21005;-81
2022/12/07 03:08:11;;;;;;;10.83;8.73;;;;;;;1.99;98.24;98222.67;2234145;79;21328;-84
2022/12/07 03:11:11;;;;;;;23.40;15.67;;;;;;;1.98;97.84;98223.08;2233783;79;21017;-84
2022/12/07 03:14:11;;;;;;;13.40;9.27;;;;;;;2.00;97.83;98223.14;2233893;79;20924;-83
2022/12/07 03:17:12;;;;;;;11.77;9.23;;;;;;;1.98;97.72;98226.07;2234071;80;21305;-83
2022/12/07 03:20:12;;;;;;;10.23;8.30;;;;;;;2.01;98.07;98221.03;2234759;79;20863;-84
2022/12/07 03:23:13;;;;;;;11.67;9.30;;;;;;;2.00;97.88;98225.71;2233937;78;20922;-84
2022/12/07 03:26:13;;;;;;;12.97;8.30;;;;;;;2.01;98.01;98214.19;2234376;79;20984;-84
2022/12/07 03:29:13;;;;;;;12.30;9.33;;;;;;;2.02;97.81;98220.20;2234350;79;20914;-84
2022/12/07 03:32:14;;;;;;;13.50;8.50;;;;;;;1.98;97.82;98217.94;2234509;79;20933;-84
2022/12/07 03:35:16;;;;;;;12.70;9.60;;;;;;;1.95;97.69;98220.41;2234626;79;20945;-84
2022/12/07 03:38:15;;;;;;;12.30;9.17;;;;;;;1.92;97.93;98213.86;2234518;79;21294;-84
2022/12/07 03:41:15;;;;;;;14.63;9.33;;;;;;;1.90;97.78;98206.08;2234062;79;21343;-83
2022/12/07 03:44:15;;;;;;;12.67;9.27;;;;;;;1.86;97.87;98202.06;2234492;80;20943;-82
2022/12/07 03:47:16;;;;;;;11.67;9.33;;;;;;;1.84;97.98;98194.28;2234167;79;20946;-82
2022/12/07 03:50:17;;;;;;;14.47;10.27;;;;;;;1.86;98.17;98196.91;2234360;79;21274;-84
2022/12/07 03:53:17;;;;;;;13.17;10.00;;;;;;;1.83;97.97;98201.55;2233897;80;20944;-84
2022/12/07 03:56:17;;;;;;;14.43;10.53;;;;;;;1.77;98.10;98192.31;2234156;79;20945;-83
2022/12/07 03:59:18;;;;;;;14.37;9.77;;;;;;;1.81;98.38;98199.33;2233897;79;21290;-83
2022/12/07 04:02:18;;;;;;;12.67;9.77;;;;;;;1.86;98.23;98195.22;2233644;79;20933;-84
2022/12/07 04:05:18;;;;;;;11.97;9.57;;;;;;;1.89;98.11;98200.47;2233748;79;20937;-84
2022/12/07 04:08:19;;;;;;;12.50;10.07;;;;;;;1.88;98.11;98190.12;2233990;79;20906;-83
2022/12/07 04:11:19;;;;;;;14.10;9.97;;;;;;;1.90;98.19;98185.49;2233688;79;21017;-84
2022/12/07 04:14:20;;;;;;;11.40;9.23;;;;;;;1.89;97.98;98185.03;2233842;79;20930;-84
2022/12/07 04:17:20;;;;;;;12.60;9.57;;;;;;;1.91;98.01;98190.23;2233613;79;20945;-83
2022/12/07 04:20:20;;;;;;;14.47;9.20;;;;;;;1.89;97.95;98194.45;2234213;79;20966;-83
2022/12/07 04:23:21;;;;;;;14.53;9.27;;;;;;;1.85;98.13;98190.02;2265170;78;20950;-85
2022/12/07 04:26:21;;;;;;;13.37;9.77;;;;;;;1.86;98.24;98191.36;2279442;78;20902;-82
2022/12/07 04:29:22;;;;;;;18.43;11.07;;;;;;;1.91;98.28;98191.11;2279641;78;20946;-84
2022/12/07 04:32:22;;;;;;;15.17;10.53;;;;;;;1.95;98.32;98182.20;2279883;78;20903;-85
2022/12/07 04:35:25;;;;;;;15.00;10.10;;;;;;;1.95;97.95;98183.49;2279711;78;21283;-85
2022/12/07 04:38:25;;;;;;;15.07;10.03;;;;;;;1.95;97.85;98184.78;2279510;78;20961;-83
2022/12/07 04:41:29;;;;;;;15.90;11.00;;;;;;;1.90;97.80;98182.92;2279029;78;21354;-83
2022/12/07 04:44:29;;;;;;;15.90;11.43;;;;;;;1.91;97.98;98183.80;2278849;78;20887;-85
2022/12/07 04:47:29;;;;;;;14.63;11.37;;;;;;;1.90;97.80;98179.47;2279068;78;20931;-85
2022/12/07 04:50:30;;;;;;;18.27;12.50;;;;;;;1.86;97.88;98174.63;2279556;78;21238;-85
2022/12/07 04:53:30;;;;;;;18.03;11.83;;;;;;;1.80;98.01;98177.40;2279211;78;20879;-84
2022/12/07 04:56:31;;;;;;;15.80;11.03;;;;;;;1.75;98.14;98175.95;2279100;78;20902;-83
2022/12/07 04:59:31;;;;;;;18.13;12.73;;;;;;;2.38;100.00;98171.25;2278325;78;20935;-84
2022/12/07 05:02:31;;;;;;;17.83;12.73;;;;;;;2.22;97.90;98168.98;2277689;78;21415;-83
2022/12/07 05:05:32;;;;;;;17.47;11.97;;;;;;;2.06;97.39;98173.16;2277203;78;20969;-84
2022/12/07 05:08:32;;;;;;;21.10;13.67;;;;;;;1.96;97.67;98168.52;2277554;78;20883;-84
2022/12/07 05:11:38;;;;;;;17.20;12.27;;;;;;;1.91;97.93;98170.52;2277525;78;21433;-84
2022/12/07 05:14:39;;;;;;;16.93;12.53;;;;;;;1.89;98.06;98171.28;2277278;78;20867;-84
2022/12/07 05:17:39;;;;;;;16.57;12.77;;;;;;;1.84;97.97;98170.25;2277861;78;21559;-84
2022/12/07 05:20:40;;;;;;;13.90;11.13;;;;;;;2.06;99.72;98174.03;2276701;78;20910;-83
2022/12/07 05:23:40;;;;;;;20.07;12.73;;;;;;;2.01;98.15;98173.41;2243487;78;20994;-83
2022/12/07 05:26:42;;;;;;;15.07;12.13;;;;;;;1.89;97.93;98174.73;2209489;80;21156;-84
2022/12/07 05:29:43;;;;;;;14.63;11.83;;;;;;;1.85;98.20;98174.16;2231577;79;20914;-83
2022/12/07 05:32:43;;;;;;;14.73;11.33;;;;;;;1.83;98.21;98173.23;2232400;79;21311;-84
2022/12/07 05:35:44;;;;;;;15.80;12.20;;;;;;;1.82;98.16;98177.91;2232319;80;20953;-84
2022/12/07 05:38:44;;;;;;;12.37;10.70;;;;;;;1.82;98.47;98180.91;2232840;79;21334;-83
2022/12/07 05:45:03;;;;;;;35.73;23.97;;;;;;;1.85;98.26;98183.17;2232092;80;20949;-83
2022/12/07 05:48:04;;;;;;;14.47;11.33;;;;;;;1.82;98.29;98183.47;2233230;79;20918;-85
2022/12/07 05:51:04;;;;;;;14.33;11.23;;;;;;;1.83;98.39;98191.66;2232947;79;20914;-82
2022/12/07 05:54:04;;;;;;;18.20;12.57;;;;;;;1.85;98.31;98197.33;2232744;79;20929;-84
2022/12/07 05:57:05;;;;;;;15.93;11.10;;;;;;;1.83;98.09;98192.53;2232802;79;20946;-84
2022/12/07 06:00:05;;;;;;;13.23;10.43;;;;;;;1.77;98.22;98187.58;2233033;79;21334;-84
2022/12/07 06:03:06;;;;;;;13.93;11.00;;;;;;;1.87;99.79;98191.82;2233196;79;20921;-84
2022/12/07 06:06:06;;;;;;;15.70;12.07;;;;;;;1.84;98.19;98189.14;2233260;79;20969;-83
2022/12/07 06:09:07;;;;;;;17.17;13.37;;;;;;;1.78;98.49;98194.06;2232949;80;20902;-83
2022/12/07 06:15:26;;;;;;;18.47;10.70;;;;;;;1.76;98.63;98189.69;2232895;80;20918;-83
2022/12/07 06:18:26;;;;;;;15.77;10.00;;;;;;;1.75;99.11;98184.95;2231649;79;20922;-83
2022/12/07 06:21:29;;;;;;;17.83;10.87;;;;;;;1.75;98.92;98190.10;2231823;79;20917;-85
2022/12/07 06:24:30;;;;;;;19.33;10.97;;;;;;;1.70;98.76;98187.73;2252531;78;21630;-83
2022/12/07 06:27:31;;;;;;;20.93;11.50;;;;;;;1.75;99.12;98185.36;2276852;78;20946;-83
2022/12/07 06:30:30;;;;;;;13.93;10.43;;;;;;;1.71;99.07;98189.49;2277593;78;20938;-85
2022/12/07 06:33:31;;;;;;;12.37;10.17;;;;;;;1.67;99.11;98188.91;2277624;78;20939;-85
2022/12/07 06:36:31;;;;;;;12.30;9.47;;;;;;;1.66;99.65;98192.31;2278174;78;21117;-85
2022/12/07 06:39:32;;;;;;;18.30;10.50;;;;;;;1.65;99.58;98198.28;2278259;78;20937;-85
2022/12/07 06:42:32;;;;;;;17.53;11.10;;;;;;;1.64;99.66;98193.95;2277688;78;20965;-85
2022/12/07 06:45:32;;;;;;;23.93;11.27;;;;;;;1.66;99.65;98193.59;2278222;78;20942;-85
2022/12/07 06:48:33;;;;;;;17.63;10.13;;;;;;;1.66;99.58;98198.74;2278518;78;20938;-86
2022/12/07 06:51:35;;;;;;;13.77;9.70;;;;;;;1.69;99.69;98199.27;2278385;78;20929;-85
2022/12/07 06:54:34;;;;;;;18.40;11.47;;;;;;;1.73;99.61;98200.71;2278669;78;21267;-85
2022/12/07 06:57:34;;;;;;;24.23;13.00;;;;;;;1.73;99.39;98202.00;2279090;78;20967;-85
2022/12/07 07:00:35;;;;;;;24.67;13.07;;;;;;;1.73;99.42;98204.58;2257220;78;21937;-85
2022/12/07 07:03:36;;;;;;;20.20;10.90;;;;;;;1.74;99.45;98197.77;2277444;78;20953;-86
2022/12/07 07:06:39;;;;;;;15.10;11.53;;;;;;;1.75;99.46;98204.25;2277311;78;20914;-85
2022/12/07 07:09:39;;;;;;;14.10;10.07;;;;;;;1.75;99.41;98199.11;2277758;78;20915;-85
2022/12/07 07:12:40;;;;;;;15.63;10.73;;;;;;;1.75;99.40;98204.25;2276848;78;20968;-84
2022/12/07 07:15:40;;;;;;;15.60;10.00;;;;;;;1.76;99.31;98206.00;2277931;78;20906;-85
2022/12/07 07:18:41;;;;;;;16.27;9.60;;;;;;;1.72;99.34;98208.38;2278094;78;20910;-85
2022/12/07 07:21:41;;;;;;;14.77;9.17;;;;;;;1.69;99.54;98208.27;2277728;78;20875;-82
2022/12/07 07:24:41;;;;;;;14.33;9.83;;;;;;;1.70;99.48;98210.89;2274400;78;21062;-86
2022/12/07 07:27:42;;;;;;;16.80;9.10;;;;;;;1.69;99.34;98205.70;2274616;78;20930;-85
2022/12/07 07:30:42;;;;;;;12.30;9.23;;;;;;;1.69;99.40;98205.28;2275027;78;21315;-84
2022/12/07 07:33:42;;;;;;;13.33;9.63;;;;;;;1.66;99.21;98210.32;2274888;78;20891;-84
2022/12/07 07:36:43;;;;;;;24.87;10.03;;;;;;;1.65;99.43;98211.14;2274581;78;20919;-83
2022/12/07 07:39:43;;;;;;;32.87;11.23;;;;;;;1.63;99.31;98217.92;2273975;78;20915;-85
2022/12/07 07:42:44;;;;;;;18.43;9.10;;;;;;;1.60;99.51;98223.83;2274009;78;21024;-84
2022/12/07 07:45:44;;;;;;;21.70;9.30;;;;;;;1.60;99.58;98225.53;2274137;78;20951;-83
2022/12/07 07:48:45;;;;;;;15.07;8.77;;;;;;;1.59;99.54;98221.20;2273499;78;20907;-83
2022/12/07 07:51:45;;;;;;;12.10;8.77;;;;;;;1.57;99.72;98226.70;2274387;78;20891;-85
2022/12/07 07:54:45;;;;;;;15.47;9.10;;;;;;;1.53;99.58;98224.84;2274248;78;20947;-82
2022/12/07 07:57:46;;;;;;;26.60;9.80;;;;;;;1.50;99.88;98217.88;2273685;78;20903;-83
2022/12/07 08:00:46;;;;;;;16.40;8.40;;;;;;;1.52;99.97;98225.66;2273349;78;21315;-84
2022/12/07 08:03:46;;;;;;;28.63;9.03;;;;;;;1.55;99.90;98220.22;2273701;78;21298;-85
2022/12/07 08:06:47;;;;;;;17.73;8.90;;;;;;;1.58;99.89;98222.02;2273470;78;20926;-84
2022/12/07 08:09:47;;;;;;;22.27;10.37;;;;;;;1.61;99.65;98227.28;2273658;78;20934;-83
2022/12/07 08:16:08;;;;;;;16.47;7.53;;;;;;;1.60;99.57;98236.70;2274576;78;20937;-82
2022/12/07 08:19:07;;;;;;;15.17;8.30;;;;;;;1.58;99.70;98229.74;2274334;78;20895;-82
2022/12/07 08:22:08;;;;;;;11.93;7.33;;;;;;;1.64;99.59;98234.23;2274055;78;20876;-81
2022/12/07 08:25:08;;;;;;;14.53;7.93;;;;;;;1.67;99.57;98240.37;2276861;78;20982;-82
2022/12/07 08:28:08;;;;;;;10.43;6.80;;;;;;;1.70;99.54;98235.34;2277468;78;20935;-84
2022/12/07 08:31:09;;;;;;;11.97;7.13;;;;;;;1.74;99.30;98239.81;2277166;78;21592;-84
2022/12/07 08:34:09;;;;;;;11.10;7.53;;;;;;;1.78;99.23;98242.96;2276918;78;20914;-82
2022/12/07 08:37:10;;;;;;;37.87;8.77;;;;;;;1.80;99.17;98241.32;2276864;78;20883;-82
2022/12/07 08:40:10;;;;;;;20.63;9.17;;;;;;;1.83;98.90;98241.42;2277055;78;20925;-83
2022/12/07 08:43:10;;;;;;;15.37;9.53;;;;;;;1.87;98.63;98244.58;2276423;78;20950;-83
2022/12/07 08:46:11;;;;;;;18.50;8.87;;;;;;;1.83;98.45;98250.44;2277326;78;21408;-85
2022/12/07 08:49:11;;;;;;;19.37;8.93;;;;;;;1.86;98.73;98244.11;2277648;78;20907;-84
2022/12/07 08:52:13;;;;;;;13.43;8.30;;;;;;;1.91;98.70;98247.73;2277778;78;21606;-84
2022/12/07 08:55:14;;;;;;;12.40;9.47;;;;;;;1.88;98.49;98245.05;2277905;78;20902;-84
2022/12/07 08:58:14;;;;;;;20.83;9.57;;;;;;;1.87;98.48;98245.87;2277914;78;20871;-82
2022/12/07 09:01:15;;;;;;;13.60;10.03;;;;;;;1.91;98.59;98246.86;2276740;78;21299;-83
2022/12/07 09:04:15;;;;;;;21.70;10.87;;;;;;;1.93;98.66;98252.05;2276394;78;21286;-83
2022/12/07 09:07:15;;;;;;;22.93;10.37;;;;;;;1.94;98.42;98248.66;2276644;78;20918;-82
2022/12/07 09:10:16;;;;;;;13.97;9.13;;;;;;;1.95;98.25;98243.56;2277067;78;20946;-84
2022/12/07 09:13:19;;;;;;;13.77;8.47;;;;;;;2.03;98.35;98237.41;2277041;78;21002;-85
2022/12/07 09:16:19;;;;;;;15.27;9.37;;;;;;;2.06;97.93;98237.52;2256291;78;20929;-85
2022/12/07 09:19:19;;;;;;;28.63;9.97;;;;;;;2.09;98.18;98234.63;2277350;78;20919;-84
2022/12/07 09:22:19;;;;;;;25.97;9.57;;;;;;;2.16;98.08;98231.45;2276682;78;20935;-85
2022/12/07 09:25:20;;;;;;;23.13;9.03;;;;;;;2.19;97.64;98223.83;2272898;78;20958;-84
2022/12/07 09:28:20;;;;;;;16.03;8.80;;;;;;;2.19;97.22;98228.98;2273686;78;20927;-83
2022/12/07 09:31:21;;;;;;;17.57;8.43;;;;;;;2.20;97.36;98220.84;2273939;78;21323;-86
2022/12/07 09:34:21;;;;;;;24.07;9.50;;;;;;;2.32;97.54;98223.84;2275261;78;21346;-84
2022/12/07 09:37:22;;;;;;;20.13;9.97;;;;;;;2.37;97.47;98232.59;2274466;78;20871;-81
2022/12/07 09:40:22;;;;;;;15.53;9.77;;;;;;;2.40;97.21;98236.56;2274592;78;20926;-84
2022/12/07 09:43:24;;;;;;;10.57;7.97;;;;;;;2.41;97.43;98234.45;2274085;78;20942;-84
2022/12/07 09:46:23;;;;;;;28.17;9.30;;;;;;;2.44;97.34;98237.55;2274662;78;21346;-83
2022/12/07 09:49:27;;;;;;;12.27;8.10;;;;;;;2.50;97.12;98235.17;2274749;78;20887;-83
2022/12/07 09:52:26;;;;;;;15.33;9.57;;;;;;;2.52;97.05;98229.25;2274073;78;20986;-84
2022/12/07 09:55:29;;;;;;;21.50;11.17;;;;;;;2.51;96.77;98236.93;2250693;78;21298;-84
2022/12/07 09:58:29;;;;;;;25.57;10.60;;;;;;;2.47;96.45;98235.08;2273494;78;20863;-84
2022/12/07 10:01:30;;;;;;;22.00;9.63;;;;;;;2.46;96.57;98232.91;2273672;78;21029;-82
2022/12/07 10:04:30;;;;;;;18.67;9.33;;;;;;;2.39;96.97;98228.79;2272824;78;21402;-83
2022/12/07 10:07:30;;;;;;;40.50;11.07;;;;;;;2.32;96.88;98227.70;2273424;78;20918;-81
2022/12/07 10:10:34;;;;;;;27.97;8.67;;;;;;;2.34;97.73;98231.20;2273918;78;20911;-85
2022/12/07 10:13:33;;;;;;;19.30;11.57;;;;;;;2.39;97.87;98229.66;2253151;78;20970;-85
2022/12/07 10:16:35;;;;;;;14.23;8.90;;;;;;;2.39;97.58;98224.52;2254715;78;20946;-85
2022/12/07 10:19:36;;;;;;;13.57;8.47;;;;;;;2.43;97.27;98221.62;2276080;78;20965;-84
2022/12/07 10:22:36;;;;;;;15.00;8.50;;;;;;;2.48;97.46;98218.37;2275589;78;20946;-85
2022/12/07 10:25:38;;;;;;;22.23;8.40;;;;;;;2.56;97.24;98220.80;2277719;78;20990;-84
2022/12/07 10:28:37;;;;;;;20.90;8.77;;;;;;;2.65;96.77;98218.09;2278551;78;20951;-83
2022/12/07 10:31:37;;;;;;;14.53;8.70;;;;;;;2.68;96.15;98219.48;2277995;78;20938;-82
2022/12/07 10:34:39;;;;;;;17.63;9.37;;;;;;;2.70;96.24;98207.52;2277366;78;20907;-84
2022/12/07 10:37:39;;;;;;;18.57;11.13;;;;;;;2.72;95.04;98199.42;2277554;78;20919;-83
2022/12/07 10:40:40;;;;;;;20.47;11.50;;;;;;;2.71;95.58;98201.13;2277938;78;20948;-83
2022/12/07 10:43:40;;;;;;;15.00;10.33;;;;;;;2.67;95.25;98204.84;2276862;78;21031;-83
2022/12/07 10:46:40;;;;;;;16.97;10.10;;;;;;;2.65;95.33;98210.36;2276314;78;20938;-84
2022/12/07 10:49:41;;;;;;;17.73;9.97;;;;;;;2.61;94.82;98211.09;2277650;78;20958;-83
2022/12/07 10:52:43;;;;;;;11.87;8.53;;;;;;;2.62;95.10;98207.69;2255732;78;20942;-82
2022/12/07 10:55:43;;;;;;;13.90;8.00;;;;;;;2.67;94.80;98196.70;2277075;78;21297;-82
2022/12/07 10:58:45;;;;;;;21.60;9.70;;;;;;;2.91;94.95;98203.05;2277124;78;21001;-82
2022/12/07 11:01:44;;;;;;;10.30;8.43;;;;;;;3.08;94.05;98201.87;2277363;78;20918;-84
2022/12/07 11:04:45;;;;;;;18.33;9.20;;;;;;;3.18;93.93;98201.73;2276899;78;20943;-83
2022/12/07 11:07:45;;;;;;;15.23;10.07;;;;;;;3.28;93.31;98202.47;2277165;78;20938;-82
2022/12/07 11:10:48;;;;;;;19.87;9.50;;;;;;;3.41;93.14;98199.84;2276620;78;21586;-83
2022/12/07 11:13:49;;;;;;;17.23;10.67;;;;;;;3.43;91.45;98199.06;2276670;78;21024;-82
2022/12/07 11:16:51;;;;;;;17.60;10.07;;;;;;;3.36;92.33;98189.81;2276752;78;20954;-80
2022/12/07 11:19:52;;;;;;;18.23;10.83;;;;;;;3.32;91.64;98189.25;2255630;78;21306;-83
2022/12/07 11:22:52;;;;;;;13.73;10.40;;;;;;;3.28;91.48;98202.89;2276463;78;20934;-82
2022/12/07 11:25:54;;;;;;;14.13;11.27;;;;;;;3.22;91.14;98188.11;2272857;78;20943;-84
2022/12/07 11:28:55;;;;;;;14.97;11.27;;;;;;;3.22;91.11;98196.26;2253617;78;21279;-85
2022/12/07 11:31:56;;;;;;;17.70;12.27;;;;;;;3.19;90.63;98194.05;2273391;78;20906;-83
2022/12/07 11:34:56;;;;;;;20.00;13.53;;;;;;;3.18;91.20;98184.56;2273214;78;20970;-82
2022/12/07 11:37:57;;;;;;;17.00;13.03;;;;;;;3.20;91.57;98188.48;2274344;78;21228;-83
2022/12/07 11:40:56;;;;;;;16.47;12.93;;;;;;;3.20;91.97;98182.91;2274639;78;20914;-83
2022/12/07 11:43:57;;;;;;;20.23;14.43;;;;;;;3.28;91.73;98182.25;2274230;78;21014;-83
2022/12/07 11:46:57;;;;;;;23.03;13.90;;;;;;;3.25;91.74;98172.72;2274168;78;21535;-82
2022/12/07 11:49:58;;;;;;;14.37;11.53;;;;;;;3.30;91.58;98169.86;2274177;78;20875;-83
2022/12/07 11:52:58;;;;;;;16.17;12.30;;;;;;;3.31;90.67;98163.87;2274639;78;20938;-84
2022/12/07 11:55:58;;;;;;;15.50;12.63;;;;;;;3.34;90.80;98165.67;2275034;78;20894;-84
2022/12/07 11:58:59;;;;;;;14.87;11.77;;;;;;;3.39;91.25;98158.94;2273566;78;21282;-82
2022/12/07 12:01:59;;;;;;;20.27;12.13;;;;;;;3.42;89.65;98153.86;2274420;78;20899;-83
2022/12/07 12:04:59;;;;;;;13.23;11.07;;;;;;;3.40;89.75;98155.53;2274283;78;21593;-84
2022/12/07 12:08:00;;;;;;;25.43;12.73;;;;;;;3.40;90.37;98155.11;2273754;78;20923;-81
2022/12/07 12:11:03;;;;;;;17.63;12.33;;;;;;;3.35;90.12;98152.81;2274175;78;20919;-82
2022/12/07 12:14:03;;;;;;;26.93;14.10;;;;;;;3.30;89.94;98160.84;2252892;78;21593;-81
2022/12/07 12:17:03;;;;;;;18.40;13.10;;;;;;;3.18;89.91;98155.31;2272966;78;20946;-83
2022/12/07 12:20:03;;;;;;;16.63;12.03;;;;;;;3.14;90.58;98147.03;2274558;78;20863;-83
2022/12/07 12:23:04;;;;;;;15.43;12.30;;;;;;;3.19;90.17;98154.48;2274604;78;21326;-84
2022/12/07 12:26:04;;;;;;;15.17;11.80;;;;;;;3.15;90.84;98153.94;2278216;78;21008;-84
2022/12/07 12:29:05;;;;;;;12.43;11.13;;;;;;;3.15;91.35;98148.36;2278179;78;20967;-83
2022/12/07 12:32:05;;;;;;;15.67;10.73;;;;;;;3.12;91.47;98145.69;2278190;78;20925;-83
2022/12/07 12:35:05;;;;;;;11.10;9.80;;;;;;;3.09;91.90;98152.47;2277446;78;20915;-82
2022/12/07 12:38:08;;;;;;;11.40;10.20;;;;;;;3.03;91.87;98157.44;2277975;78;20958;-82
2022/12/07 12:41:08;;;;;;;14.57;11.13;;;;;;;2.97;91.92;98154.26;2257442;78;21363;-84
2022/12/07 12:44:09;;;;;;;12.23;10.73;;;;;;;2.95;92.38;98143.02;2276800;78;20947;-82
2022/12/07 12:47:09;;;;;;;12.77;10.40;;;;;;;2.99;92.49;98143.99;2277031;78;20937;-82
2022/12/07 12:50:09;;;;;;;13.50;11.13;;;;;;;3.04;92.93;98139.44;2276108;78;21589;-82
2022/12/07 12:53:10;;;;;;;13.57;10.53;;;;;;;3.06;92.62;98133.91;2276431;78;20946;-83
2022/12/07 12:56:10;;;;;;;12.93;10.83;;;;;;;3.14;92.74;98123.82;2277257;78;20942;-82
2022/12/07 12:59:11;;;;;;;13.07;9.90;;;;;;;3.35;92.42;98117.98;2276303;78;21394;-82
2022/12/07 13:02:11;;;;;;;12.00;10.03;;;;;;;3.62;91.96;98117.04;2276817;78;20942;-81
2022/12/07 13:05:12;;;;;;;11.60;9.57;;;;;;;3.77;91.15;98115.75;2276710;78;20937;-83
2022/12/07 13:08:12;;;;;;;11.07;9.50;;;;;;;3.82;90.87;98123.20;2276268;78;20955;-83
2022/12/07 13:11:12;;;;;;;14.30;11.23;;;;;;;3.89;90.38;98124.66;2275500;78;20894;-82
2022/12/07 13:14:13;;;;;;;13.27;10.50;;;;;;;3.86;91.16;98128.44;2275739;78;21369;-83
2022/12/07 13:17:13;;;;;;;12.33;8.90;;;;;;;3.77;90.10;98132.53;2276041;78;20911;-83
2022/12/07 13:20:14;;;;;;;9.50;8.07;;;;;;;3.62;88.87;98126.08;2275680;78;20989;-82
2022/12/07 13:23:15;;;;;;;13.23;9.20;;;;;;;3.58;89.73;98124.24;2275244;78;21357;-83
2022/12/07 13:26:15;;;;;;;11.20;8.97;;;;;;;3.56;89.65;98121.62;2232977;78;20946;-82
2022/12/07 13:29:15;;;;;;;12.63;9.97;;;;;;;3.53;89.25;98118.08;2230250;79;20955;-84
2022/12/07 13:32:16;;;;;;;11.93;9.60;;;;;;;3.43;89.66;98122.08;2230090;79;21301;-82
2022/12/07 13:35:16;;;;;;;13.23;10.20;;;;;;;3.39;89.36;98126.27;2230138;79;20945;-84
2022/12/07 13:38:17;;;;;;;11.83;10.27;;;;;;;3.28;89.64;98126.80;2231515;80;20890;-85
2022/12/07 13:41:17;;;;;;;13.00;9.67;;;;;;;3.25;90.16;98122.84;2232097;79;20895;-85
2022/12/07 13:44:17;;;;;;;15.67;10.53;;;;;;;3.23;89.51;98123.21;2231521;79;21420;-83
2022/12/07 13:47:18;;;;;;;13.10;10.03;;;;;;;3.24;90.24;98118.52;2231904;79;20970;-84
2022/12/07 13:50:18;;;;;;;14.73;10.47;;;;;;;3.23;90.24;98124.09;2231299;79;20917;-83
2022/12/07 13:53:19;;;;;;;17.70;11.53;;;;;;;3.19;90.62;98130.86;2231378;79;20914;-83
2022/12/07 13:56:19;;;;;;;17.00;12.40;;;;;;;3.13;90.84;98124.23;2231541;79;21435;-84
2022/12/07 13:59:20;;;;;;;17.40;12.63;;;;;;;3.15;91.37;98127.73;2231324;79;20953;-84
2022/12/07 14:02:21;;;;;;;18.40;13.03;;;;;;;3.16;91.33;98121.75;2231732;79;20874;-84
2022/12/07 14:05:20;;;;;;;16.67;12.90;;;;;;;3.17;91.37;98122.62;2232113;79;21303;-84
2022/12/07 14:08:21;;;;;;;20.17;12.97;;;;;;;3.16;91.41;98125.61;2231573;79;21274;-84
2022/12/07 14:11:21;;;;;;;17.33;13.73;;;;;;;3.19;91.36;98128.28;2231483;79;20961;-83
2022/12/07 14:14:22;;;;;;;20.10;14.53;;;;;;;3.19;91.32;98125.70;2231546;79;20938;-83